createdAt,value
2022-09-24T00:01:41.375Z,15.93
2022-09-24T00:04:14.295Z,15.77
2022-09-24T00:06:47.519Z,12.30
2022-09-24T00:09:17.667Z,13.18
2022-09-24T00:11:45.877Z,11.88
2022-09-24T00:14:14.052Z,15.38
2022-09-24T00:16:44.301Z,13.95
2022-09-24T00:19:13.509Z,12.03
2022-09-24T00:21:41.707Z,13.27
2022-09-24T00:24:33.337Z,14.20
2022-09-24T00:27:01.239Z,14.82
2022-09-24T00:29:29.366Z,13.52
2022-09-24T00:31:56.865Z,14.80
2022-09-24T00:34:24.821Z,14.00
2022-09-24T00:36:53.314Z,12.15
2022-09-24T00:39:20.787Z,13.25
2022-09-24T00:41:49.257Z,12.75
2022-09-24T00:44:41.235Z,14.30
2022-09-24T00:47:27.642Z,10.75
2022-09-24T00:50:10.476Z,12.40
2022-09-24T00:52:42.778Z,13.35
2022-09-24T00:55:11.614Z,12.23
2022-09-24T00:57:40.305Z,11.30
2022-09-24T01:00:08.869Z,12.50
2022-09-24T01:02:39.975Z,10.75
2022-09-24T01:05:08.689Z,12.25
2022-09-24T01:07:36.293Z,13.00
2022-09-24T01:10:04.967Z,11.20
2022-09-24T01:12:52.604Z,11.80
2022-09-24T01:15:43.490Z,14.07
2022-09-24T01:18:20.391Z,13.43
2022-09-24T01:21:10.085Z,15.45
2022-09-24T01:23:48.405Z,13.00
2022-09-24T01:26:36.374Z,13.65
2022-09-24T01:29:42.450Z,12.02
2022-09-24T01:32:31.613Z,11.77
2022-09-24T01:35:10.445Z,15.35
2022-09-24T01:37:43.873Z,13.45
2022-09-24T01:40:12.551Z,12.63
2022-09-24T01:42:42.933Z,14.13
2022-09-24T01:45:11.948Z,12.30
2022-09-24T01:47:41.429Z,11.35
2022-09-24T01:50:14.334Z,10.50
2022-09-24T01:53:05.536Z,10.80
2022-09-24T01:55:38.783Z,10.55
2022-09-24T01:58:14.888Z,12.13
2022-09-24T02:00:46.974Z,10.18
2022-09-24T02:03:22.717Z,9.13
2022-09-24T02:06:04.138Z,13.57
2022-09-24T02:08:39.640Z,9.63
2022-09-24T02:11:23.739Z,10.02
2022-09-24T02:14:10.819Z,11.00
2022-09-24T02:16:49.426Z,12.93
2022-09-24T02:19:25.570Z,11.07
2022-09-24T02:21:53.550Z,11.43
2022-09-24T02:24:26.321Z,9.63
2022-09-24T02:26:55.376Z,9.60
2022-09-24T02:29:23.612Z,9.63
2022-09-24T02:31:55.037Z,9.57
2022-09-24T02:34:47.499Z,14.65
2022-09-24T02:37:16.424Z,18.00
2022-09-24T02:39:44.301Z,15.20
2022-09-24T02:42:14.686Z,12.33
2022-09-24T02:44:42.111Z,11.85
2022-09-24T02:47:09.716Z,10.73
2022-09-24T02:49:37.065Z,9.25
2022-09-24T02:52:05.204Z,8.98
2022-09-24T02:54:32.685Z,8.27
2022-09-24T02:56:59.967Z,9.32
2022-09-24T02:59:27.540Z,7.85
2022-09-24T03:01:55.041Z,10.55
2022-09-24T03:04:22.507Z,16.38
2022-09-24T03:06:49.928Z,9.07
2022-09-24T03:09:17.694Z,7.40
2022-09-24T03:11:45.190Z,7.28
2022-09-24T03:14:12.514Z,8.18
2022-09-24T03:16:40.003Z,12.23
2022-09-24T03:19:08.257Z,8.57
2022-09-24T03:21:35.649Z,7.55
2022-09-24T03:24:04.645Z,8.02
2022-09-24T03:26:32.272Z,8.77
2022-09-24T03:28:59.847Z,7.65
2022-09-24T03:31:27.426Z,9.17
2022-09-24T03:33:54.780Z,10.48
2022-09-24T03:36:24.750Z,10.88
2022-09-24T03:38:56.714Z,10.38
2022-09-24T03:41:26.101Z,10.95
2022-09-24T03:43:53.669Z,11.07
2022-09-24T03:46:21.252Z,10.32
2022-09-24T03:48:49.430Z,11.50
2022-09-24T03:51:20.367Z,10.18
2022-09-24T03:53:48.863Z,8.45
2022-09-24T03:56:17.021Z,8.37
2022-09-24T03:58:48.547Z,9.48
2022-09-24T04:01:22.051Z,11.38
2022-09-24T04:03:50.894Z,9.25
2022-09-24T04:06:23.491Z,8.50
2022-09-24T04:08:53.699Z,9.00
2022-09-24T04:11:21.169Z,10.73
2022-09-24T04:13:48.707Z,10.10
2022-09-24T04:16:16.353Z,10.38
2022-09-24T04:18:43.779Z,10.38
2022-09-24T04:21:11.374Z,8.47
2022-09-24T04:23:39.111Z,12.68
2022-09-24T04:26:06.620Z,9.85
2022-09-24T04:28:34.501Z,10.00
2022-09-24T04:31:01.934Z,11.50
2022-09-24T04:33:29.399Z,12.33
2022-09-24T04:35:56.614Z,10.43
2022-09-24T04:38:24.878Z,10.35
2022-09-24T04:40:52.207Z,9.25
2022-09-24T04:43:19.735Z,9.75
2022-09-24T04:45:47.092Z,8.77
2022-09-24T04:48:14.855Z,11.02
2022-09-24T04:50:46.030Z,9.57
2022-09-24T04:53:14.555Z,10.50
2022-09-24T04:55:42.231Z,10.73
2022-09-24T04:58:10.391Z,11.20
2022-09-24T05:00:37.829Z,9.10
2022-09-24T05:03:05.981Z,9.88
2022-09-24T05:05:34.656Z,10.45
2022-09-24T05:08:02.869Z,8.73
2022-09-24T05:10:34.901Z,9.77
2022-09-24T05:13:02.525Z,9.52
2022-09-24T05:15:29.860Z,11.05
2022-09-24T05:17:57.254Z,12.85
2022-09-24T05:20:24.815Z,13.15
2022-09-24T05:22:52.126Z,13.23
2022-09-24T05:25:21.586Z,9.10
2022-09-24T05:27:51.664Z,11.38
2022-09-24T05:30:21.033Z,10.60
2022-09-24T05:32:54.744Z,11.70
2022-09-24T05:35:24.274Z,27.85
2022-09-24T05:37:53.939Z,24.08
2022-09-24T05:40:40.501Z,23.75
2022-09-24T05:43:08.018Z,36.70
2022-09-24T05:45:35.361Z,32.60
2022-09-24T05:48:02.914Z,56.65
2022-09-24T05:50:31.252Z,26.33
2022-09-24T05:52:59.017Z,24.88
2022-09-24T05:55:31.431Z,20.63
2022-09-24T05:58:18.466Z,15.77
2022-09-24T06:00:48.919Z,13.07
2022-09-24T06:03:18.104Z,11.82
2022-09-24T06:05:50.559Z,9.20
2022-09-24T06:08:19.785Z,8.63
2022-09-24T06:10:47.661Z,8.05
2022-09-24T06:13:18.642Z,8.48
2022-09-24T06:15:46.682Z,8.65
2022-09-24T06:18:14.216Z,11.07
2022-09-24T06:20:41.742Z,8.65
2022-09-24T06:23:09.200Z,12.23
2022-09-24T06:25:36.775Z,8.15
2022-09-24T06:28:05.391Z,8.23
2022-09-24T06:30:38.767Z,9.05
2022-09-24T06:33:09.977Z,7.97
2022-09-24T06:35:41.669Z,6.95
2022-09-24T06:38:12.830Z,7.10
2022-09-24T06:40:41.626Z,6.55
2022-09-24T06:43:11.380Z,6.38
2022-09-24T06:45:38.777Z,6.65
2022-09-24T06:48:06.976Z,6.85
2022-09-24T06:50:35.665Z,7.35
2022-09-24T06:53:07.168Z,7.82
2022-09-24T06:55:38.654Z,6.75
2022-09-24T06:58:11.775Z,5.95
2022-09-24T07:00:40.342Z,6.47
2022-09-24T07:03:10.901Z,7.10
2022-09-24T07:05:43.234Z,54.28
2022-09-24T07:08:11.393Z,11.13
2022-09-24T07:10:42.537Z,6.57
2022-09-24T07:13:09.871Z,7.07
2022-09-24T07:15:37.233Z,7.60
2022-09-24T07:18:04.669Z,5.63
2022-09-24T07:20:33.614Z,6.82
2022-09-24T07:23:01.060Z,6.05
2022-09-24T07:25:28.419Z,6.15
2022-09-24T07:27:55.908Z,7.35
2022-09-24T07:30:23.364Z,6.50
2022-09-24T07:32:55.712Z,5.55
2022-09-24T07:35:23.946Z,5.32
2022-09-24T07:38:01.140Z,6.00
2022-09-24T07:40:29.877Z,7.38
2022-09-24T07:42:58.339Z,6.78
2022-09-24T07:45:31.721Z,5.80
2022-09-24T07:48:03.369Z,6.35
2022-09-24T07:50:33.415Z,6.93
2022-09-24T07:53:00.974Z,5.97
2022-09-24T07:55:28.374Z,5.63
2022-09-24T07:57:56.496Z,5.57
2022-09-24T08:00:25.169Z,5.90
2022-09-24T08:02:54.075Z,5.20
2022-09-24T08:05:21.585Z,14.15
2022-09-24T08:07:53.759Z,40.83
2022-09-24T08:10:21.371Z,15.80
2022-09-24T08:12:48.944Z,5.30
2022-09-24T08:15:16.375Z,6.32
2022-09-24T08:17:43.704Z,5.63
2022-09-24T08:20:12.637Z,5.85
2022-09-24T08:22:39.944Z,6.20
2022-09-24T08:25:08.136Z,5.28
2022-09-24T08:27:37.417Z,5.93
2022-09-24T08:30:06.071Z,5.22
2022-09-24T08:32:35.162Z,5.38
2022-09-24T08:35:02.656Z,5.20
2022-09-24T08:37:30.339Z,5.55
2022-09-24T08:39:57.858Z,5.05
2022-09-24T08:42:49.589Z,5.82
2022-09-24T08:45:36.614Z,5.30
2022-09-24T08:48:26.655Z,6.28
2022-09-24T08:51:01.589Z,4.53
2022-09-24T08:53:48.939Z,4.43
2022-09-24T08:56:22.506Z,5.13
2022-09-24T08:59:05.589Z,6.03
2022-09-24T09:01:54.463Z,4.50
2022-09-24T09:04:45.229Z,5.05
2022-09-24T09:07:26.818Z,5.55
2022-09-24T09:10:04.660Z,5.32
2022-09-24T09:12:48.982Z,5.00
2022-09-24T09:15:27.279Z,4.80
2022-09-24T09:18:30.297Z,5.65
2022-09-24T09:21:06.631Z,6.30
2022-09-24T09:23:41.699Z,4.72
2022-09-24T09:26:12.139Z,4.65
2022-09-24T09:28:39.669Z,5.20
2022-09-24T09:31:28.496Z,9.23
2022-09-24T09:34:12.432Z,4.70
2022-09-24T09:37:03.980Z,4.70
2022-09-24T09:39:50.014Z,4.65
2022-09-24T09:42:27.855Z,4.25
2022-09-24T09:44:56.055Z,4.68
2022-09-24T09:47:46.777Z,4.85
2022-09-24T09:50:32.545Z,5.30
2022-09-24T09:53:00.021Z,4.97
2022-09-24T09:55:36.144Z,4.88
2022-09-24T09:58:20.218Z,4.55
2022-09-24T10:00:50.694Z,4.15
2022-09-24T10:03:49.920Z,4.30
2022-09-24T10:06:28.828Z,5.38
2022-09-24T10:09:08.672Z,4.68
2022-09-24T10:11:36.134Z,4.95
2022-09-24T10:14:10.206Z,4.53
2022-09-24T10:16:43.988Z,5.55
2022-09-24T10:19:26.935Z,4.80
2022-09-24T10:21:57.752Z,4.47
2022-09-24T10:24:29.576Z,4.28
2022-09-24T10:26:57.849Z,4.65
2022-09-24T10:29:50.044Z,4.82
2022-09-24T10:32:20.967Z,12.57
2022-09-24T10:35:02.795Z,8.52
2022-09-24T10:37:30.697Z,45.78
2022-09-24T10:40:03.084Z,11.52
2022-09-24T10:42:31.577Z,6.25
2022-09-24T10:45:01.826Z,6.87
2022-09-24T10:47:35.011Z,4.95
2022-09-24T10:50:36.662Z,4.60
2022-09-24T10:53:48.619Z,5.97
2022-09-24T10:56:43.633Z,4.97
2022-09-24T10:59:21.795Z,5.65
2022-09-24T11:02:14.824Z,4.45
2022-09-24T11:04:54.705Z,5.05
2022-09-24T11:07:40.497Z,5.10
2022-09-24T11:10:20.884Z,4.95
2022-09-24T11:13:00.071Z,4.43
2022-09-24T11:15:42.612Z,4.20
2022-09-24T11:18:56.436Z,7.18
2022-09-24T11:21:42.408Z,4.32
2022-09-24T11:24:28.543Z,4.30
2022-09-24T11:27:31.190Z,4.30
2022-09-24T11:30:21.503Z,5.68
2022-09-24T11:33:03.873Z,5.35
2022-09-24T11:35:46.343Z,4.88
2022-09-24T11:38:23.054Z,5.63
2022-09-24T11:41:28.223Z,4.13
2022-09-24T11:44:17.969Z,4.20
2022-09-24T11:47:00.071Z,4.60
2022-09-24T11:49:42.865Z,18.80
2022-09-24T11:52:19.689Z,13.82
2022-09-24T11:55:11.148Z,4.93
2022-09-24T11:57:54.451Z,9.45
2022-09-24T12:00:22.258Z,8.80
2022-09-24T12:03:05.042Z,14.38
2022-09-24T12:05:45.153Z,9.85
2022-09-24T12:08:20.728Z,4.97
2022-09-24T12:11:04.956Z,57.33
2022-09-24T12:13:42.204Z,27.10
2022-09-24T12:16:15.101Z,14.07
2022-09-24T12:19:06.445Z,48.92
2022-09-24T12:21:43.666Z,5.65
2022-09-24T12:24:23.175Z,5.40
2022-09-24T12:26:53.019Z,12.32
2022-09-24T12:29:57.465Z,6.88
2022-09-24T12:32:56.337Z,17.80
2022-09-24T12:35:29.176Z,10.55
2022-09-24T12:38:04.717Z,5.10
2022-09-24T12:41:01.240Z,4.90
2022-09-24T12:43:41.405Z,8.85
2022-09-24T12:46:20.048Z,7.10
2022-09-24T12:48:49.989Z,6.65
2022-09-24T12:51:22.595Z,7.05
2022-09-24T12:54:06.531Z,10.18
2022-09-24T12:56:35.201Z,7.43
2022-09-24T12:59:05.871Z,5.70
2022-09-24T13:01:34.866Z,10.10
2022-09-24T13:04:17.229Z,6.18
2022-09-24T13:06:48.478Z,7.80
2022-09-24T13:09:40.814Z,9.35
2022-09-24T13:12:43.668Z,7.78
2022-09-24T13:15:42.403Z,36.15
2022-09-24T13:18:10.509Z,8.30
2022-09-24T13:20:41.602Z,7.20
2022-09-24T13:23:32.061Z,9.15
2022-09-24T13:26:05.428Z,5.95
2022-09-24T13:28:52.703Z,10.25
2022-09-24T13:31:27.818Z,14.15
2022-09-24T13:34:07.533Z,8.15
2022-09-24T13:36:52.957Z,9.98
2022-09-24T13:39:25.789Z,10.32
2022-09-24T13:42:07.918Z,9.32
2022-09-24T13:44:46.993Z,9.38
2022-09-24T13:47:32.241Z,5.63
2022-09-24T13:50:22.877Z,8.13
2022-09-24T13:53:06.935Z,10.90
2022-09-24T13:55:47.182Z,9.55
2022-09-24T13:58:47.765Z,6.72
2022-09-24T14:01:23.662Z,8.18
2022-09-24T14:04:01.198Z,6.25
2022-09-24T14:06:38.392Z,12.63
2022-09-24T14:09:32.307Z,4.68
2022-09-24T14:12:17.797Z,5.15
2022-09-24T14:14:50.957Z,8.60
2022-09-24T14:17:18.767Z,6.10
2022-09-24T14:19:46.397Z,5.50
2022-09-24T14:22:29.487Z,7.10
2022-09-24T14:25:32.192Z,5.45
2022-09-24T14:28:02.261Z,5.95
2022-09-24T14:30:45.874Z,4.70
2022-09-24T14:33:17.917Z,5.50
2022-09-24T14:35:50.249Z,4.97
2022-09-24T14:38:26.367Z,6.18
2022-09-24T14:41:00.633Z,5.35
2022-09-24T14:43:45.104Z,5.97
2022-09-24T14:46:48.903Z,5.00
2022-09-24T14:49:26.922Z,4.63
2022-09-24T14:52:05.166Z,4.43
2022-09-24T14:54:40.632Z,4.80
2022-09-24T14:57:20.078Z,4.55
2022-09-24T14:59:48.034Z,5.03
2022-09-24T15:02:20.499Z,5.70
2022-09-24T15:04:50.914Z,4.75
2022-09-24T15:07:22.897Z,5.03
2022-09-24T15:09:56.438Z,4.72
2022-09-24T15:12:32.203Z,9.40
2022-09-24T15:15:22.714Z,7.45
2022-09-24T15:17:50.273Z,9.80
2022-09-24T15:20:17.677Z,11.68
2022-09-24T15:22:47.942Z,12.95
2022-09-24T15:25:16.166Z,12.95
2022-09-24T15:27:43.999Z,10.82
2022-09-24T15:30:18.167Z,9.20
2022-09-24T15:32:45.883Z,8.70
2022-09-24T15:35:15.889Z,9.10
2022-09-24T15:37:44.035Z,10.25
2022-09-24T15:40:23.749Z,10.35
2022-09-24T15:42:52.008Z,7.63
2022-09-24T15:45:24.735Z,8.07
2022-09-24T15:47:53.691Z,7.47
2022-09-24T15:50:23.114Z,14.30
2022-09-24T15:52:58.763Z,22.13
2022-09-24T15:55:26.333Z,23.55
2022-09-24T15:57:54.740Z,104.75
2022-09-24T16:00:24.488Z,117.25
2022-09-24T16:02:55.231Z,81.70
2022-09-24T16:05:24.029Z,47.20
2022-09-24T16:07:51.643Z,44.33
2022-09-24T16:10:19.980Z,20.02
2022-09-24T16:12:47.400Z,15.13
2022-09-24T16:15:16.400Z,17.33
2022-09-24T16:17:44.394Z,15.32
2022-09-24T16:20:11.652Z,15.27
2022-09-24T16:22:38.997Z,12.07
2022-09-24T16:25:06.952Z,12.35
2022-09-24T16:27:35.593Z,15.30
2022-09-24T16:30:03.672Z,17.92
2022-09-24T16:32:31.002Z,11.02
2022-09-24T16:34:58.318Z,16.52
2022-09-24T16:37:26.798Z,13.30
2022-09-24T16:39:55.314Z,13.40
2022-09-24T16:42:26.476Z,13.63
2022-09-24T16:44:53.882Z,13.77
2022-09-24T16:47:21.487Z,15.30
2022-09-24T16:49:49.033Z,10.02
2022-09-24T16:52:16.371Z,9.77
2022-09-24T16:54:43.994Z,8.55
2022-09-24T16:57:13.144Z,11.25
2022-09-24T16:59:40.929Z,10.20
2022-09-24T17:02:10.997Z,19.88
2022-09-24T17:04:39.733Z,11.20
2022-09-24T17:07:07.591Z,11.95
2022-09-24T17:09:53.761Z,13.23
2022-09-24T17:12:21.405Z,15.85
2022-09-24T17:14:48.687Z,19.17
2022-09-24T17:17:16.034Z,19.63
2022-09-24T17:19:43.337Z,18.95
2022-09-24T17:22:10.643Z,18.45
2022-09-24T17:24:40.289Z,31.20
2022-09-24T17:27:08.488Z,20.67
2022-09-24T17:29:36.590Z,16.90
2022-09-24T17:32:04.390Z,16.23
2022-09-24T17:34:31.946Z,9.77
2022-09-24T17:37:00.113Z,9.65
2022-09-24T17:39:28.307Z,9.43
2022-09-24T17:41:55.688Z,9.93
2022-09-24T17:44:23.443Z,7.22
2022-09-24T17:46:50.918Z,10.38
2022-09-24T17:49:18.492Z,14.05
2022-09-24T17:51:46.799Z,13.20
2022-09-24T17:54:17.622Z,10.20
2022-09-24T17:56:45.757Z,9.93
2022-09-24T17:59:14.717Z,10.25
2022-09-24T18:01:43.834Z,16.20
2022-09-24T18:04:17.523Z,20.17
2022-09-24T18:06:46.766Z,17.17
2022-09-24T18:09:15.485Z,13.55
2022-09-24T18:11:45.753Z,11.75
2022-09-24T18:14:19.112Z,10.93
2022-09-24T18:16:46.500Z,10.90
2022-09-24T18:19:17.267Z,17.40
2022-09-24T18:21:45.922Z,15.30
2022-09-24T18:24:14.708Z,16.85
2022-09-24T18:26:43.310Z,69.95
2022-09-24T18:29:16.240Z,29.52
2022-09-24T18:31:45.288Z,16.97
2022-09-24T18:34:15.898Z,12.70
2022-09-24T18:36:44.776Z,14.15
2022-09-24T18:39:17.614Z,15.05
2022-09-24T18:41:47.888Z,16.92
2022-09-24T18:44:15.368Z,56.30
2022-09-24T18:46:43.206Z,36.58
2022-09-24T18:49:12.180Z,35.72
2022-09-24T18:51:40.505Z,44.42
2022-09-24T18:54:14.094Z,34.78
2022-09-24T18:56:42.673Z,22.17
2022-09-24T18:59:20.688Z,32.42
2022-09-24T19:01:50.975Z,17.00
2022-09-24T19:04:19.178Z,13.60
2022-09-24T19:06:52.033Z,13.82
2022-09-24T19:09:21.336Z,13.27
2022-09-24T19:11:49.737Z,12.07
2022-09-24T19:14:20.614Z,8.80
2022-09-24T19:16:48.632Z,9.55
2022-09-24T19:19:16.900Z,11.35
2022-09-24T19:21:44.448Z,11.70
2022-09-24T19:24:12.119Z,12.52
2022-09-24T19:26:40.835Z,14.15
2022-09-24T19:29:08.256Z,18.48
2022-09-24T19:31:39.117Z,22.67
2022-09-24T19:34:10.684Z,18.83
2022-09-24T19:36:43.370Z,11.93
2022-09-24T19:39:15.530Z,14.38
2022-09-24T19:41:43.602Z,10.18
2022-09-24T19:44:11.849Z,9.05
2022-09-24T19:46:40.137Z,10.73
2022-09-24T19:49:07.877Z,12.13
2022-09-24T19:51:40.116Z,14.27
2022-09-24T19:54:09.256Z,17.70
2022-09-24T19:56:38.351Z,13.95
2022-09-24T19:59:09.163Z,10.17
2022-09-24T20:01:39.825Z,11.57
2022-09-24T20:04:08.108Z,10.55
2022-09-24T20:06:37.155Z,13.35
2022-09-24T20:09:04.812Z,14.75
2022-09-24T20:11:33.072Z,15.00
2022-09-24T20:14:01.789Z,14.02
2022-09-24T20:16:32.865Z,9.15
2022-09-24T20:19:01.581Z,8.10
2022-09-24T20:21:32.620Z,6.78
2022-09-24T20:24:01.609Z,6.83
2022-09-24T20:26:48.178Z,8.00
2022-09-24T20:29:16.478Z,7.45
2022-09-24T20:31:54.033Z,8.68
2022-09-24T20:34:29.077Z,9.35
2022-09-24T20:36:58.653Z,9.50
2022-09-24T20:39:25.937Z,11.30
2022-09-24T20:41:53.326Z,8.38
2022-09-24T20:44:22.252Z,8.82
2022-09-24T20:46:49.682Z,8.77
2022-09-24T20:49:23.564Z,11.23
2022-09-24T20:51:56.659Z,7.10
2022-09-24T20:54:25.857Z,7.03
2022-09-24T20:56:53.313Z,7.15
2022-09-24T20:59:20.772Z,6.90
2022-09-24T21:01:49.756Z,7.73
2022-09-24T21:04:20.310Z,6.85
2022-09-24T21:06:48.877Z,8.13
2022-09-24T21:09:17.319Z,8.60
2022-09-24T21:11:44.919Z,8.02
2022-09-24T21:14:12.865Z,8.40
2022-09-24T21:16:40.873Z,7.65
2022-09-24T21:19:08.401Z,7.97
2022-09-24T21:21:39.272Z,8.82
2022-09-24T21:24:10.533Z,8.57
2022-09-24T21:26:39.398Z,11.80
2022-09-24T21:29:12.355Z,9.55
2022-09-24T21:31:42.238Z,7.43
2022-09-24T21:34:10.979Z,11.70
2022-09-24T21:36:44.357Z,11.57
2022-09-24T21:39:23.274Z,9.93
2022-09-24T21:41:53.335Z,15.98
2022-09-24T21:44:21.774Z,18.55
2022-09-24T21:46:52.834Z,16.90
2022-09-24T21:49:20.847Z,16.45
2022-09-24T21:51:48.839Z,18.77
2022-09-24T21:54:18.259Z,21.27
2022-09-24T21:56:46.673Z,25.55
2022-09-24T21:59:34.068Z,26.92
2022-09-24T22:02:02.447Z,18.23
2022-09-24T22:04:32.218Z,17.30
2022-09-24T22:06:59.915Z,19.08
2022-09-24T22:09:27.352Z,17.08
2022-09-24T22:11:56.269Z,17.60
2022-09-24T22:14:24.069Z,18.83
2022-09-24T22:16:51.814Z,21.60
2022-09-24T22:19:19.575Z,16.35
2022-09-24T22:21:47.046Z,19.20
2022-09-24T22:24:15.515Z,17.42
2022-09-24T22:26:42.937Z,21.45
2022-09-24T22:29:10.318Z,19.50
2022-09-24T22:31:37.733Z,19.77
2022-09-24T22:34:23.401Z,17.92
2022-09-24T22:36:52.000Z,16.83
2022-09-24T22:39:19.414Z,18.65
2022-09-24T22:41:47.281Z,18.13
2022-09-24T22:44:14.767Z,16.70
2022-09-24T22:46:42.298Z,16.17
2022-09-24T22:49:11.251Z,18.13
2022-09-24T22:51:39.681Z,15.57
2022-09-24T22:54:08.626Z,14.03
2022-09-24T22:56:37.164Z,15.18
2022-09-24T22:59:04.995Z,14.27
2022-09-24T23:01:50.601Z,17.13
2022-09-24T23:04:18.059Z,19.25
2022-09-24T23:06:45.522Z,19.73
2022-09-24T23:09:13.130Z,17.52
2022-09-24T23:11:40.661Z,17.15
2022-09-24T23:14:14.780Z,13.65
2022-09-24T23:16:45.888Z,16.50
2022-09-24T23:19:19.216Z,15.73
2022-09-24T23:21:47.132Z,16.05
2022-09-24T23:24:20.266Z,17.10
2022-09-24T23:26:48.066Z,15.57
2022-09-24T23:29:16.059Z,15.43
2022-09-24T23:31:43.510Z,17.13
2022-09-24T23:34:13.673Z,19.45
2022-09-24T23:36:41.545Z,15.35
2022-09-24T23:39:08.893Z,18.00
2022-09-24T23:41:36.189Z,19.15
2022-09-24T23:44:03.749Z,21.67
2022-09-24T23:46:34.007Z,28.30
2022-09-24T23:49:01.423Z,22.88
2022-09-24T23:51:28.906Z,26.67
2022-09-24T23:53:56.224Z,26.17
2022-09-24T23:56:23.699Z,21.67
2022-09-24T23:58:51.140Z,23.75
